Time;durP1;ratioP1;P1;durP2;ratioP2;P2;SDS_P1;SDS_P2;PMS_P1;PMS_P2;Temp;Humidity;BMP_temperature;BMP_pressure;BME280_temperature;BME280_humidity;BME280_pressure;Samples;Min_cycle;Max_cycle;Signal;HPM_P1;HPM_P2
2023/05/08 00:01:33;;;;;;;;;;;;;;;;;;5089768;28;19920;-61
2023/05/08 00:03:59;;;;;;;;;;;;;;;;;;5070768;28;19924;-61
2023/05/08 00:06:26;;;;;;;;;;;;;;;;;;5071189;28;19924;-60
2023/05/08 00:08:52;;;;;;;;;;;;;;;;;;5089575;28;20396;-60
2023/05/08 00:11:18;;;;;;;;;;;;;;;;;;5088841;28;19924;-61
2023/05/08 00:13:44;;;;;;;;;;;;;;;;;;5089550;28;19920;-60
2023/05/08 00:16:11;;;;;;;;;;;;;;;;;;5089582;28;19928;-61
2023/05/08 00:18:37;;;;;;;;;;;;;;;;;;5088761;28;19926;-61
2023/05/08 00:21:03;;;;;;;;;;;;;;;;;;5089195;28;19942;-60
2023/05/08 00:23:29;;;;;;;;;;;;;;;;;;5089188;28;20026;-60
2023/05/08 00:25:58;;;;;;;;;;;;;;;;;;5080132;28;19928;-60
2023/05/08 00:28:24;;;;;;;;;;;;;;;;;;5083589;28;20371;-61
2023/05/08 00:30:50;;;;;;;;;;;;;;;;;;5089392;28;19935;-60
2023/05/08 00:33:15;;;;;;;;;;;;;;;;;;5088796;28;19951;-61
2023/05/08 00:35:41;;;;;;;;;;;;;;;;;;5089334;28;20038;-60
2023/05/08 00:38:07;;;;;;;;;;;;;;;;;;5089192;28;19920;-60
2023/05/08 00:40:33;;;;;;;;;;;;;;;;;;5088518;28;20389;-60
2023/05/08 00:42:59;;;;;;;;;;;;;;;;;;5089352;28;20335;-60
2023/05/08 00:45:25;;;;;;;;;;;;;;;;;;5091907;28;20028;-60
2023/05/08 00:47:51;;;;;;;;;;;;;;;;;;5092383;28;19924;-60
2023/05/08 00:50:17;;;;;;;;;;;;;;;;;;5092870;28;19931;-60
2023/05/08 00:52:43;;;;;;;;;;;;;;;;;;5092821;28;20018;-60
2023/05/08 00:55:09;;;;;;;;;;;;;;;;;;5092303;28;20054;-61
2023/05/08 00:57:35;;;;;;;;;;;;;;;;;;5092802;28;20351;-60
2023/05/08 01:00:02;;;;;;;;;;;;;;;;;;5074284;28;19927;-60
2023/05/08 01:02:30;;;;;;;;;;;;;;;;;;5092086;28;20022;-60
2023/05/08 01:04:55;;;;;;;;;;;;;;;;;;5092605;28;19967;-60
2023/05/08 01:07:21;;;;;;;;;;;;;;;;;;5092441;28;19960;-60
2023/05/08 01:09:47;;;;;;;;;;;;;;;;;;5073711;28;20362;-60
2023/05/08 01:12:13;;;;;;;;;;;;;;;;;;5092202;28;19924;-60
2023/05/08 01:14:39;;;;;;;;;;;;;;;;;;5092411;28;19924;-60
2023/05/08 01:17:05;;;;;;;;;;;;;;;;;;5092148;28;19920;-60
2023/05/08 01:19:31;;;;;;;;;;;;;;;;;;5091959;28;19920;-59
2023/05/08 01:21:57;;;;;;;;;;;;;;;;;;5092015;28;19920;-60
2023/05/08 01:24:23;;;;;;;;;;;;;;;;;;5092098;28;19973;-60
2023/05/08 01:26:49;;;;;;;;;;;;;;;;;;5076770;28;19924;-60
2023/05/08 01:29:15;;;;;;;;;;;;;;;;;;5073985;28;19924;-60
2023/05/08 01:31:41;;;;;;;;;;;;;;;;;;5092000;28;19981;-60
2023/05/08 01:34:07;;;;;;;;;;;;;;;;;;5091510;28;19920;-60
2023/05/08 01:36:33;;;;;;;;;;;;;;;;;;5073477;28;20278;-60
2023/05/08 01:38:59;;;;;;;;;;;;;;;;;;5092043;28;20198;-60
2023/05/08 01:41:28;;;;;;;;;;;;;;;;;;5091203;28;19993;-60
2023/05/08 01:43:54;;;;;;;;;;;;;;;;;;5091818;28;20398;-61
2023/05/08 01:46:20;;;;;;;;;;;;;;;;;;5091557;28;19936;-61
2023/05/08 01:48:46;;;;;;;;;;;;;;;;;;5091144;28;19985;-61
2023/05/08 01:51:12;;;;;;;;;;;;;;;;;;5091658;28;19924;-60
2023/05/08 01:53:38;;;;;;;;;;;;;;;;;;5091390;28;20018;-60
2023/05/08 01:56:04;;;;;;;;;;;;;;;;;;5090669;28;19931;-60
2023/05/08 01:58:30;;;;;;;;;;;;;;;;;;5091279;28;20237;-60
2023/05/08 02:00:56;;;;;;;;;;;;;;;;;;5091432;28;19973;-60
2023/05/08 02:03:21;;;;;;;;;;;;;;;;;;5090934;28;19920;-60
2023/05/08 02:05:47;;;;;;;;;;;;;;;;;;5091158;28;20480;-60
2023/05/08 02:08:13;;;;;;;;;;;;;;;;;;5091609;28;19931;-59
2023/05/08 02:10:39;;;;;;;;;;;;;;;;;;5090813;28;19927;-60
2023/05/08 02:13:05;;;;;;;;;;;;;;;;;;5091178;28;19970;-60
2023/05/08 02:15:34;;;;;;;;;;;;;;;;;;5091294;28;20340;-60
2023/05/08 02:18:00;;;;;;;;;;;;;;;;;;5090641;28;19928;-60
2023/05/08 02:20:26;;;;;;;;;;;;;;;;;;5090860;28;20236;-60
2023/05/08 02:22:52;;;;;;;;;;;;;;;;;;5090823;28;19920;-61
2023/05/08 02:25:18;;;;;;;;;;;;;;;;;;5087020;28;19977;-61
2023/05/08 02:27:44;;;;;;;;;;;;;;;;;;5079865;28;20274;-60
2023/05/08 02:30:10;;;;;;;;;;;;;;;;;;5090656;28;19981;-60
2023/05/08 02:32:36;;;;;;;;;;;;;;;;;;5090266;28;19924;-60
2023/05/08 02:35:02;;;;;;;;;;;;;;;;;;5090739;28;20562;-61
2023/05/08 02:37:27;;;;;;;;;;;;;;;;;;5090617;28;20185;-61
2023/05/08 02:39:53;;;;;;;;;;;;;;;;;;5090357;28;20017;-60
2023/05/08 02:42:19;;;;;;;;;;;;;;;;;;5090691;28;19931;-60
2023/05/08 02:44:45;;;;;;;;;;;;;;;;;;5090460;28;19927;-60
2023/05/08 02:47:11;;;;;;;;;;;;;;;;;;5089941;28;19927;-60
2023/05/08 02:49:37;;;;;;;;;;;;;;;;;;5090450;28;20398;-60
2023/05/08 02:52:03;;;;;;;;;;;;;;;;;;5090509;28;19986;-60
2023/05/08 02:54:29;;;;;;;;;;;;;;;;;;5071528;28;19932;-61
2023/05/08 02:56:55;;;;;;;;;;;;;;;;;;5090194;28;20386;-60
2023/05/08 02:59:21;;;;;;;;;;;;;;;;;;5090447;28;19935;-61
2023/05/08 03:01:46;;;;;;;;;;;;;;;;;;5089860;28;20266;-61
2023/05/08 03:04:12;;;;;;;;;;;;;;;;;;5090449;28;19920;-60
2023/05/08 03:06:38;;;;;;;;;;;;;;;;;;5089591;28;19924;-59
2023/05/08 03:09:04;;;;;;;;;;;;;;;;;;5071438;28;19981;-61
2023/05/08 03:11:30;;;;;;;;;;;;;;;;;;5090149;28;19928;-61
2023/05/08 03:13:56;;;;;;;;;;;;;;;;;;5090255;28;20376;-60
2023/05/08 03:16:22;;;;;;;;;;;;;;;;;;5071127;28;19961;-60
2023/05/08 03:18:48;;;;;;;;;;;;;;;;;;5090205;28;19930;-60
2023/05/08 03:21:14;;;;;;;;;;;;;;;;;;5071421;28;19920;-60
2023/05/08 03:23:40;;;;;;;;;;;;;;;;;;5089063;28;19939;-60
2023/05/08 03:26:06;;;;;;;;;;;;;;;;;;5080092;28;20402;-60
2023/05/08 03:28:34;;;;;;;;;;;;;;;;;;5084923;28;21370;-60
2023/05/08 03:30:59;;;;;;;;;;;;;;;;;;5089263;28;20374;-60
2023/05/08 03:33:25;;;;;;;;;;;;;;;;;;5089895;28;19920;-60
2023/05/08 03:35:52;;;;;;;;;;;;;;;;;;5089675;28;19920;-59
2023/05/08 03:38:18;;;;;;;;;;;;;;;;;;5089172;28;19924;-60
2023/05/08 03:40:43;;;;;;;;;;;;;;;;;;5089703;28;19924;-60
2023/05/08 03:43:09;;;;;;;;;;;;;;;;;;5089730;28;19927;-60
2023/05/08 03:45:35;;;;;;;;;;;;;;;;;;5089151;28;19932;-59
2023/05/08 03:48:01;;;;;;;;;;;;;;;;;;5089738;28;19927;-61
2023/05/08 03:50:27;;;;;;;;;;;;;;;;;;5089225;28;20367;-60
2023/05/08 03:52:53;;;;;;;;;;;;;;;;;;5089067;28;19924;-60
2023/05/08 03:55:19;;;;;;;;;;;;;;;;;;5089590;28;20284;-60
2023/05/08 03:57:45;;;;;;;;;;;;;;;;;;5089707;28;20010;-59
2023/05/08 04:00:12;;;;;;;;;;;;;;;;;;5089109;28;19927;-59
2023/05/08 04:02:37;;;;;;;;;;;;;;;;;;5089480;28;19969;-59
2023/05/08 04:05:03;;;;;;;;;;;;;;;;;;5071030;28;19928;-60
2023/05/08 04:07:29;;;;;;;;;;;;;;;;;;5089376;28;19970;-59
2023/05/08 04:09:55;;;;;;;;;;;;;;;;;;5089407;28;19950;-61
2023/05/08 04:12:21;;;;;;;;;;;;;;;;;;5089620;28;19977;-60
2023/05/08 04:14:47;;;;;;;;;;;;;;;;;;5089279;28;19985;-61
2023/05/08 04:17:13;;;;;;;;;;;;;;;;;;5089457;28;19920;-60
2023/05/08 04:19:39;;;;;;;;;;;;;;;;;;5093164;28;20049;-60
2023/05/08 04:22:05;;;;;;;;;;;;;;;;;;5077026;28;20065;-60
2023/05/08 04:24:31;;;;;;;;;;;;;;;;;;5094129;28;19935;-60
2023/05/08 04:26:57;;;;;;;;;;;;;;;;;;5079947;28;19928;-60
2023/05/08 04:29:23;;;;;;;;;;;;;;;;;;5094493;28;19924;-61
2023/05/08 04:31:49;;;;;;;;;;;;;;;;;;5094278;28;19927;-60
2023/05/08 04:34:15;;;;;;;;;;;;;;;;;;5094501;28;20590;-60
2023/05/08 04:36:41;;;;;;;;;;;;;;;;;;5059210;28;19924;-60
2023/05/08 04:39:07;;;;;;;;;;;;;;;;;;5093507;28;19924;-60
2023/05/08 04:41:34;;;;;;;;;;;;;;;;;;5094163;28;19931;-59
2023/05/08 04:44:00;;;;;;;;;;;;;;;;;;5094045;28;20688;-60
2023/05/08 04:46:26;;;;;;;;;;;;;;;;;;5075510;28;19928;-60
2023/05/08 04:48:52;;;;;;;;;;;;;;;;;;5093714;28;20043;-59
2023/05/08 04:51:18;;;;;;;;;;;;;;;;;;5094248;28;19920;-60
2023/05/08 04:53:43;;;;;;;;;;;;;;;;;;5093145;28;19920;-60
2023/05/08 04:56:09;;;;;;;;;;;;;;;;;;5093766;28;19924;-60
2023/05/08 04:58:35;;;;;;;;;;;;;;;;;;5094328;28;19931;-60
2023/05/08 05:01:02;;;;;;;;;;;;;;;;;;5093586;28;19924;-60
2023/05/08 05:03:28;;;;;;;;;;;;;;;;;;5094059;28;19927;-60
2023/05/08 05:05:54;;;;;;;;;;;;;;;;;;5094157;28;19928;-60
2023/05/08 05:08:20;;;;;;;;;;;;;;;;;;5092607;28;20185;-61
2023/05/08 05:10:46;;;;;;;;;;;;;;;;;;5092778;28;20011;-61
2023/05/08 05:13:12;;;;;;;;;;;;;;;;;;5093419;28;20069;-61
2023/05/08 05:15:38;;;;;;;;;;;;;;;;;;5074971;28;19977;-61
2023/05/08 05:18:04;;;;;;;;;;;;;;;;;;5093972;28;19931;-60
2023/05/08 05:20:30;;;;;;;;;;;;;;;;;;5093623;28;19924;-60
2023/05/08 05:22:56;;;;;;;;;;;;;;;;;;5092535;28;20002;-61
2023/05/08 05:25:22;;;;;;;;;;;;;;;;;;5075198;28;19932;-61
2023/05/08 05:27:48;;;;;;;;;;;;;;;;;;5074919;28;20053;-61
2023/05/08 05:30:14;;;;;;;;;;;;;;;;;;5074289;28;20006;-61
2023/05/08 05:32:40;;;;;;;;;;;;;;;;;;5093117;28;19928;-61
2023/05/08 05:35:06;;;;;;;;;;;;;;;;;;5093067;28;19920;-61
2023/05/08 05:37:32;;;;;;;;;;;;;;;;;;5092466;28;19920;-61
2023/05/08 05:39:58;;;;;;;;;;;;;;;;;;5092924;28;20001;-60
2023/05/08 05:42:24;;;;;;;;;;;;;;;;;;5092692;28;20033;-60
2023/05/08 05:44:50;;;;;;;;;;;;;;;;;;5092386;28;20506;-60
2023/05/08 05:47:16;;;;;;;;;;;;;;;;;;5092635;28;19923;-60
2023/05/08 05:49:45;;;;;;;;;;;;;;;;;;5092410;28;19920;-61
2023/05/08 05:52:11;;;;;;;;;;;;;;;;;;5092091;28;19919;-62
2023/05/08 05:54:37;;;;;;;;;;;;;;;;;;5074211;28;19973;-61
2023/05/08 05:57:03;;;;;;;;;;;;;;;;;;5074551;28;19924;-61
2023/05/08 05:59:29;;;;;;;;;;;;;;;;;;5092079;28;19932;-61
2023/05/08 06:01:55;;;;;;;;;;;;;;;;;;5092675;28;19920;-61
2023/05/08 06:04:21;;;;;;;;;;;;;;;;;;5092563;28;19930;-61
2023/05/08 06:06:47;;;;;;;;;;;;;;;;;;5091850;28;19973;-61
2023/05/08 06:09:14;;;;;;;;;;;;;;;;;;5092617;28;19920;-61
2023/05/08 06:11:41;;;;;;;;;;;;;;;;;;5092343;28;20000;-61
2023/05/08 06:14:07;;;;;;;;;;;;;;;;;;5092236;28;19920;-62
2023/05/08 06:16:34;;;;;;;;;;;;;;;;;;5091863;28;19924;-62
2023/05/08 06:19:00;;;;;;;;;;;;;;;;;;5092202;28;19924;-62
2023/05/08 06:21:27;;;;;;;;;;;;;;;;;;5091459;28;19927;-61
2023/05/08 06:23:53;;;;;;;;;;;;;;;;;;5087715;28;19929;-61
2023/05/08 06:26:20;;;;;;;;;;;;;;;;;;5091848;28;20251;-59
2023/05/08 06:28:46;;;;;;;;;;;;;;;;;;5088829;28;19920;-58
2023/05/08 06:31:11;;;;;;;;;;;;;;;;;;5083551;28;19924;-60
2023/05/08 06:33:37;;;;;;;;;;;;;;;;;;5078608;28;19974;-58
2023/05/08 06:36:04;;;;;;;;;;;;;;;;;;5078786;28;19955;-60
2023/05/08 06:38:30;;;;;;;;;;;;;;;;;;5063655;28;20290;-61
2023/05/08 06:40:56;;;;;;;;;;;;;;;;;;5090147;28;20792;-62
2023/05/08 06:43:22;;;;;;;;;;;;;;;;;;5085303;28;20022;-60
2023/05/08 06:45:48;;;;;;;;;;;;;;;;;;5073768;28;19995;-59
2023/05/08 06:48:14;;;;;;;;;;;;;;;;;;5091310;28;20031;-60
2023/05/08 06:50:41;;;;;;;;;;;;;;;;;;5089142;28;19934;-61
2023/05/08 06:53:08;;;;;;;;;;;;;;;;;;5089686;28;20248;-60
2023/05/08 06:55:34;;;;;;;;;;;;;;;;;;5090794;28;19959;-59
2023/05/08 06:58:00;;;;;;;;;;;;;;;;;;5090696;28;19971;-59
2023/05/08 07:00:26;;;;;;;;;;;;;;;;;;5090913;28;19920;-59
2023/05/08 07:02:52;;;;;;;;;;;;;;;;;;5090511;28;19924;-58
2023/05/08 07:05:18;;;;;;;;;;;;;;;;;;5084731;28;19973;-58
2023/05/08 07:07:44;;;;;;;;;;;;;;;;;;5090821;28;19931;-59
2023/05/08 07:10:10;;;;;;;;;;;;;;;;;;5072489;28;19935;-60
2023/05/08 07:12:36;;;;;;;;;;;;;;;;;;5090265;28;19924;-58
2023/05/08 07:15:03;;;;;;;;;;;;;;;;;;5090580;28;20061;-56
2023/05/08 07:17:29;;;;;;;;;;;;;;;;;;5090890;28;20294;-59
2023/05/08 07:19:55;;;;;;;;;;;;;;;;;;5090379;28;19931;-59
2023/05/08 07:22:21;;;;;;;;;;;;;;;;;;5072492;28;20359;-61
2023/05/08 07:24:47;;;;;;;;;;;;;;;;;;5071966;28;19967;-61
2023/05/08 07:27:13;;;;;;;;;;;;;;;;;;5063545;28;19928;-61
2023/05/08 07:29:40;;;;;;;;;;;;;;;;;;5090157;28;20018;-61
2023/05/08 07:32:06;;;;;;;;;;;;;;;;;;5090459;28;19931;-61
2023/05/08 07:34:32;;;;;;;;;;;;;;;;;;5090536;28;19922;-59
2023/05/08 07:36:58;;;;;;;;;;;;;;;;;;5090177;28;19928;-59
2023/05/08 07:39:24;;;;;;;;;;;;;;;;;;5090772;28;19955;-59
2023/05/08 07:41:49;;;;;;;;;;;;;;;;;;5090570;28;19920;-59
2023/05/08 07:44:15;;;;;;;;;;;;;;;;;;5087554;28;19946;-59
2023/05/08 07:46:41;;;;;;;;;;;;;;;;;;5075615;28;19964;-59
2023/05/08 07:49:07;;;;;;;;;;;;;;;;;;5085134;28;19924;-61
2023/05/08 07:51:33;;;;;;;;;;;;;;;;;;5089622;28;19924;-61
2023/05/08 07:53:59;;;;;;;;;;;;;;;;;;5092621;28;19946;-59
2023/05/08 07:56:26;;;;;;;;;;;;;;;;;;5094727;28;19965;-61
2023/05/08 07:58:52;;;;;;;;;;;;;;;;;;5075511;28;20011;-61
2023/05/08 08:01:18;;;;;;;;;;;;;;;;;;5094656;28;20125;-61
2023/05/08 08:03:44;;;;;;;;;;;;;;;;;;5094424;28;19920;-61
2023/05/08 08:06:10;;;;;;;;;;;;;;;;;;5079091;28;20018;-60
2023/05/08 08:08:36;;;;;;;;;;;;;;;;;;5089939;28;19960;-60
2023/05/08 08:11:02;;;;;;;;;;;;;;;;;;5083722;28;19962;-60
2023/05/08 08:13:27;;;;;;;;;;;;;;;;;;5093333;28;19970;-59
2023/05/08 08:15:53;;;;;;;;;;;;;;;;;;5084387;28;19970;-59
2023/05/08 08:18:19;;;;;;;;;;;;;;;;;;5084915;28;19926;-58
2023/05/08 08:20:46;;;;;;;;;;;;;;;;;;5082335;28;19948;-62
2023/05/08 08:23:12;;;;;;;;;;;;;;;;;;5079043;28;19928;-61
2023/05/08 08:25:37;;;;;;;;;;;;;;;;;;5080794;28;21366;-61
2023/05/08 08:28:03;;;;;;;;;;;;;;;;;;5092356;28;19928;-62
2023/05/08 08:30:29;;;;;;;;;;;;;;;;;;5087978;28;19946;-61
2023/05/08 08:32:55;;;;;;;;;;;;;;;;;;5087189;28;19935;-61
2023/05/08 08:35:28;;;;;;;;;;;;;;;;;;5081913;28;19920;-57
2023/05/08 08:37:53;;;;;;;;;;;;;;;;;;5091108;28;19992;-59
2023/05/08 08:40:20;;;;;;;;;;;;;;;;;;5090571;28;20523;-59
2023/05/08 08:42:46;;;;;;;;;;;;;;;;;;5087146;28;19985;-58
2023/05/08 08:45:12;;;;;;;;;;;;;;;;;;5087176;28;19928;-58
2023/05/08 08:47:40;;;;;;;;;;;;;;;;;;5091650;28;19920;-58
2023/05/08 08:50:06;;;;;;;;;;;;;;;;;;5083577;28;19928;-58
2023/05/08 08:52:32;;;;;;;;;;;;;;;;;;5090197;28;19971;-57
2023/05/08 08:54:58;;;;;;;;;;;;;;;;;;5081855;28;19955;-56
2023/05/08 08:57:24;;;;;;;;;;;;;;;;;;5088089;28;19982;-58
2023/05/08 08:59:50;;;;;;;;;;;;;;;;;;5087058;28;19925;-60
2023/05/08 09:02:16;;;;;;;;;;;;;;;;;;5088567;28;20015;-58
2023/05/08 09:04:42;;;;;;;;;;;;;;;;;;5083352;28;20614;-59
2023/05/08 09:07:08;;;;;;;;;;;;;;;;;;5082676;28;19935;-60
2023/05/08 09:09:37;;;;;;;;;;;;;;;;;;5089171;28;19920;-58
2023/05/08 09:12:03;;;;;;;;;;;;;;;;;;5088755;28;19927;-58
2023/05/08 09:14:29;;;;;;;;;;;;;;;;;;5085734;28;20391;-59
2023/05/08 09:16:55;;;;;;;;;;;;;;;;;;5083694;28;19930;-61
2023/05/08 09:19:21;;;;;;;;;;;;;;;;;;5089370;28;19924;-59
2023/05/08 09:21:47;;;;;;;;;;;;;;;;;;5086259;28;19924;-61
2023/05/08 09:24:13;;;;;;;;;;;;;;;;;;5085430;28;19924;-60
2023/05/08 09:26:39;;;;;;;;;;;;;;;;;;5076284;28;19932;-60
2023/05/08 09:29:05;;;;;;;;;;;;;;;;;;5080522;28;20598;-58
2023/05/08 09:31:31;;;;;;;;;;;;;;;;;;5063111;28;20007;-58
2023/05/08 09:33:57;;;;;;;;;;;;;;;;;;5087262;28;19959;-59
2023/05/08 09:36:23;;;;;;;;;;;;;;;;;;5091853;28;20037;-60
2023/05/08 09:38:49;;;;;;;;;;;;;;;;;;5091608;28;19928;-59
2023/05/08 09:41:15;;;;;;;;;;;;;;;;;;5085182;28;19964;-59
2023/05/08 09:43:40;;;;;;;;;;;;;;;;;;5078301;28;19929;-60
2023/05/08 09:46:06;;;;;;;;;;;;;;;;;;5085178;28;19931;-59
2023/05/08 09:48:32;;;;;;;;;;;;;;;;;;5087874;28;19928;-59
2023/05/08 09:50:58;;;;;;;;;;;;;;;;;;5086771;28;19928;-59
2023/05/08 09:53:24;;;;;;;;;;;;;;;;;;5091367;28;19920;-60
2023/05/08 09:55:50;;;;;;;;;;;;;;;;;;5087915;28;19935;-59
2023/05/08 09:58:16;;;;;;;;;;;;;;;;;;5077187;28;19964;-58
2023/05/08 10:00:42;;;;;;;;;;;;;;;;;;5075799;28;19921;-60
2023/05/08 10:03:08;;;;;;;;;;;;;;;;;;5085008;28;19993;-61
2023/05/08 10:05:35;;;;;;;;;;;;;;;;;;5084166;28;19935;-61
2023/05/08 10:08:01;;;;;;;;;;;;;;;;;;5082341;28;19935;-59
2023/05/08 10:10:27;;;;;;;;;;;;;;;;;;5078803;28;20367;-59
2023/05/08 10:12:53;;;;;;;;;;;;;;;;;;5081538;28;19927;-59
2023/05/08 10:15:19;;;;;;;;;;;;;;;;;;5084761;28;19946;-59
2023/05/08 10:17:45;;;;;;;;;;;;;;;;;;5090368;28;20666;-59
2023/05/08 10:20:11;;;;;;;;;;;;;;;;;;5084748;28;19931;-61
2023/05/08 10:22:38;;;;;;;;;;;;;;;;;;5082487;28;19920;-59
2023/05/08 10:25:05;;;;;;;;;;;;;;;;;;5080180;28;19932;-59
2023/05/08 10:27:31;;;;;;;;;;;;;;;;;;5083859;28;20355;-59
2023/05/08 10:29:57;;;;;;;;;;;;;;;;;;5088708;28;19924;-59
2023/05/08 10:32:23;;;;;;;;;;;;;;;;;;5075168;28;20428;-60
2023/05/08 10:34:48;;;;;;;;;;;;;;;;;;5082945;28;19942;-61
2023/05/08 10:37:14;;;;;;;;;;;;;;;;;;5078507;28;19930;-61
2023/05/08 10:39:40;;;;;;;;;;;;;;;;;;5090270;28;19946;-61
2023/05/08 10:42:06;;;;;;;;;;;;;;;;;;5086205;28;19930;-61
2023/05/08 10:44:32;;;;;;;;;;;;;;;;;;5091261;28;19970;-61
2023/05/08 10:46:58;;;;;;;;;;;;;;;;;;5090432;28;19967;-61
2023/05/08 10:49:24;;;;;;;;;;;;;;;;;;5090443;28;19970;-61
2023/05/08 10:51:50;;;;;;;;;;;;;;;;;;5085442;28;19993;-61
2023/05/08 10:54:16;;;;;;;;;;;;;;;;;;5090968;28;19920;-61
2023/05/08 10:56:42;;;;;;;;;;;;;;;;;;5089977;28;19958;-61
2023/05/08 10:59:08;;;;;;;;;;;;;;;;;;5091050;28;19928;-62
2023/05/08 11:01:34;;;;;;;;;;;;;;;;;;5090431;28;19924;-61
2023/05/08 11:04:00;;;;;;;;;;;;;;;;;;5090232;28;19924;-61
2023/05/08 11:06:26;;;;;;;;;;;;;;;;;;5089536;28;19954;-60
2023/05/08 11:08:53;;;;;;;;;;;;;;;;;;5083965;28;19928;-61
2023/05/08 11:11:20;;;;;;;;;;;;;;;;;;5082117;28;19924;-59
2023/05/08 11:13:46;;;;;;;;;;;;;;;;;;5083825;28;19924;-60
2023/05/08 11:16:12;;;;;;;;;;;;;;;;;;5089889;28;20262;-62
2023/05/08 11:18:38;;;;;;;;;;;;;;;;;;5082831;28;20011;-61
2023/05/08 11:21:05;;;;;;;;;;;;;;;;;;5089914;28;20065;-60
2023/05/08 11:23:31;;;;;;;;;;;;;;;;;;5079720;28;20424;-60
2023/05/08 11:25:57;;;;;;;;;;;;;;;;;;5079637;28;19947;-60
2023/05/08 11:28:23;;;;;;;;;;;;;;;;;;5088590;28;19931;-61
2023/05/08 11:30:49;;;;;;;;;;;;;;;;;;5074023;28;19921;-62
2023/05/08 11:33:15;;;;;;;;;;;;;;;;;;5082095;28;19955;-61
2023/05/08 11:35:41;;;;;;;;;;;;;;;;;;5081720;28;20341;-62
2023/05/08 11:38:06;;;;;;;;;;;;;;;;;;5084082;28;20011;-60
2023/05/08 11:40:32;;;;;;;;;;;;;;;;;;5084060;28;19930;-61
2023/05/08 11:42:58;;;;;;;;;;;;;;;;;;5081412;28;20014;-60
2023/05/08 11:45:24;;;;;;;;;;;;;;;;;;5076841;28;19994;-61
2023/05/08 11:47:50;;;;;;;;;;;;;;;;;;5088252;28;19924;-61
2023/05/08 11:50:16;;;;;;;;;;;;;;;;;;5075658;28;19920;-62
2023/05/08 11:52:42;;;;;;;;;;;;;;;;;;5084605;28;19986;-60
2023/05/08 11:55:08;;;;;;;;;;;;;;;;;;5087630;28;19920;-62
2023/05/08 11:57:34;;;;;;;;;;;;;;;;;;5089839;28;19947;-62
2023/05/08 12:00:00;;;;;;;;;;;;;;;;;;5087826;28;19990;-62
2023/05/08 12:02:26;;;;;;;;;;;;;;;;;;5085379;28;19989;-62
2023/05/08 12:04:53;;;;;;;;;;;;;;;;;;5078802;28;19989;-61
2023/05/08 12:07:19;;;;;;;;;;;;;;;;;;5082340;28;20294;-62
2023/05/08 12:09:45;;;;;;;;;;;;;;;;;;5087191;28;19924;-61
2023/05/08 12:12:11;;;;;;;;;;;;;;;;;;5089814;28;19924;-60
2023/05/08 12:14:37;;;;;;;;;;;;;;;;;;5089748;28;20031;-62
2023/05/08 12:17:03;;;;;;;;;;;;;;;;;;5077711;28;19957;-62
2023/05/08 12:19:29;;;;;;;;;;;;;;;;;;5080811;28;19989;-62
2023/05/08 12:21:55;;;;;;;;;;;;;;;;;;5080084;28;19920;-62
2023/05/08 12:24:22;;;;;;;;;;;;;;;;;;5076315;28;19932;-62
2023/05/08 12:26:49;;;;;;;;;;;;;;;;;;5074699;28;19934;-61
2023/05/08 12:29:15;;;;;;;;;;;;;;;;;;5078374;28;19969;-60
2023/05/08 12:31:40;;;;;;;;;;;;;;;;;;5079852;28;19932;-61
2023/05/08 12:34:07;;;;;;;;;;;;;;;;;;5083849;28;19931;-63
2023/05/08 12:36:33;;;;;;;;;;;;;;;;;;5071041;28;20380;-61
2023/05/08 12:38:59;;;;;;;;;;;;;;;;;;5083766;28;19943;-61
2023/05/08 12:41:25;;;;;;;;;;;;;;;;;;5086864;28;19928;-61
2023/05/08 12:43:51;;;;;;;;;;;;;;;;;;5086034;28;19950;-61
2023/05/08 12:46:17;;;;;;;;;;;;;;;;;;5092655;28;19924;-62
2023/05/08 12:48:43;;;;;;;;;;;;;;;;;;5082132;28;20240;-61
2023/05/08 12:51:09;;;;;;;;;;;;;;;;;;5092536;28;19930;-60
2023/05/08 12:53:35;;;;;;;;;;;;;;;;;;5088212;28;19965;-60
2023/05/08 12:56:01;;;;;;;;;;;;;;;;;;5076335;28;19928;-61
2023/05/08 12:58:27;;;;;;;;;;;;;;;;;;5078374;28;19920;-60
2023/05/08 13:00:53;;;;;;;;;;;;;;;;;;5079333;28;19946;-60
2023/05/08 13:03:19;;;;;;;;;;;;;;;;;;5070363;28;19931;-59
2023/05/08 13:05:45;;;;;;;;;;;;;;;;;;5082858;28;20573;-59
2023/05/08 13:08:11;;;;;;;;;;;;;;;;;;5079726;28;19985;-59
2023/05/08 13:10:37;;;;;;;;;;;;;;;;;;5087214;28;19920;-58
2023/05/08 13:13:03;;;;;;;;;;;;;;;;;;5092826;28;19971;-58
2023/05/08 13:15:29;;;;;;;;;;;;;;;;;;5092095;28;19984;-64
2023/05/08 13:17:55;;;;;;;;;;;;;;;;;;5092471;28;19924;-64
2023/05/08 13:20:22;;;;;;;;;;;;;;;;;;5092690;28;19947;-62
2023/05/08 13:22:48;;;;;;;;;;;;;;;;;;5091928;28;19931;-64
2023/05/08 13:25:14;;;;;;;;;;;;;;;;;;5091757;28;19933;-64
2023/05/08 13:27:40;;;;;;;;;;;;;;;;;;5075412;28;19928;-65
2023/05/08 13:30:06;;;;;;;;;;;;;;;;;;5055600;28;20387;-65
2023/05/08 13:32:32;;;;;;;;;;;;;;;;;;5092631;28;19946;-66
2023/05/08 13:34:58;;;;;;;;;;;;;;;;;;5092407;28;19931;-63
2023/05/08 13:37:24;;;;;;;;;;;;;;;;;;5083241;28;19924;-65
2023/05/08 13:39:49;;;;;;;;;;;;;;;;;;5077568;28;19924;-64
2023/05/08 13:42:15;;;;;;;;;;;;;;;;;;5082083;28;19963;-66
2023/05/08 13:44:42;;;;;;;;;;;;;;;;;;5080383;28;19924;-63
2023/05/08 13:47:08;;;;;;;;;;;;;;;;;;5079188;28;20410;-63
2023/05/08 13:49:34;;;;;;;;;;;;;;;;;;5081695;28;20535;-63
2023/05/08 13:52:00;;;;;;;;;;;;;;;;;;5079428;28;19931;-64
2023/05/08 13:54:26;;;;;;;;;;;;;;;;;;5081399;28;19920;-64
2023/05/08 13:56:52;;;;;;;;;;;;;;;;;;5078042;28;19920;-63
2023/05/08 13:59:18;;;;;;;;;;;;;;;;;;5078208;28;19959;-63
2023/05/08 14:01:44;;;;;;;;;;;;;;;;;;5075331;28;19956;-66
2023/05/08 14:04:10;;;;;;;;;;;;;;;;;;5089806;28;19924;-66
2023/05/08 14:06:36;;;;;;;;;;;;;;;;;;5092222;28;19931;-63
2023/05/08 14:09:02;;;;;;;;;;;;;;;;;;5091608;28;19924;-63
2023/05/08 14:11:28;;;;;;;;;;;;;;;;;;5073790;28;19924;-63
2023/05/08 14:13:54;;;;;;;;;;;;;;;;;;5089711;28;19920;-63
2023/05/08 14:16:20;;;;;;;;;;;;;;;;;;5080416;28;19924;-63
2023/05/08 14:18:46;;;;;;;;;;;;;;;;;;5079781;28;19928;-65
2023/05/08 14:21:12;;;;;;;;;;;;;;;;;;5080801;28;19924;-65
2023/05/08 14:23:38;;;;;;;;;;;;;;;;;;5079068;28;19924;-64
2023/05/08 14:26:04;;;;;;;;;;;;;;;;;;5086525;28;19963;-63
2023/05/08 14:28:30;;;;;;;;;;;;;;;;;;5073446;28;19924;-63
2023/05/08 14:30:56;;;;;;;;;;;;;;;;;;5091025;28;19991;-62
2023/05/08 14:33:22;;;;;;;;;;;;;;;;;;5091708;28;20018;-62
2023/05/08 14:35:48;;;;;;;;;;;;;;;;;;5091484;28;19927;-62
2023/05/08 14:38:14;;;;;;;;;;;;;;;;;;5091275;28;19924;-62
2023/05/08 14:40:40;;;;;;;;;;;;;;;;;;5073726;28;19924;-61
2023/05/08 14:43:06;;;;;;;;;;;;;;;;;;5091420;28;19920;-60
2023/05/08 14:45:31;;;;;;;;;;;;;;;;;;5090847;28;19931;-62
2023/05/08 14:47:57;;;;;;;;;;;;;;;;;;5091838;28;19924;-62
2023/05/08 14:50:25;;;;;;;;;;;;;;;;;;5073445;28;20007;-62
2023/05/08 14:52:51;;;;;;;;;;;;;;;;;;5070751;28;19924;-62
2023/05/08 14:55:19;;;;;;;;;;;;;;;;;;5071501;28;19920;-62
2023/05/08 14:57:45;;;;;;;;;;;;;;;;;;5071368;28;20271;-62
2023/05/08 15:00:11;;;;;;;;;;;;;;;;;;5070792;28;19920;-62
2023/05/08 15:02:36;;;;;;;;;;;;;;;;;;5070556;28;19924;-62
2023/05/08 15:05:02;;;;;;;;;;;;;;;;;;5071261;28;19921;-62
2023/05/08 15:07:28;;;;;;;;;;;;;;;;;;5070785;28;19924;-62
2023/05/08 15:09:54;;;;;;;;;;;;;;;;;;5071119;28;19947;-62
2023/05/08 15:12:20;;;;;;;;;;;;;;;;;;5071192;28;19924;-62
2023/05/08 15:14:46;;;;;;;;;;;;;;;;;;5070304;28;20003;-62
2023/05/08 15:17:12;;;;;;;;;;;;;;;;;;5071370;28;19956;-62
2023/05/08 15:19:38;;;;;;;;;;;;;;;;;;5071263;28;20436;-61
2023/05/08 15:22:04;;;;;;;;;;;;;;;;;;5070333;28;19928;-61
2023/05/08 15:24:30;;;;;;;;;;;;;;;;;;5070592;28;19928;-61
2023/05/08 15:26:56;;;;;;;;;;;;;;;;;;5072991;28;19931;-61
2023/05/08 15:29:22;;;;;;;;;;;;;;;;;;5072349;28;19924;-61
2023/05/08 15:31:48;;;;;;;;;;;;;;;;;;5090957;28;19920;-61
2023/05/08 15:34:14;;;;;;;;;;;;;;;;;;5091203;28;19924;-61
2023/05/08 15:36:40;;;;;;;;;;;;;;;;;;5090677;28;19946;-61
2023/05/08 15:39:06;;;;;;;;;;;;;;;;;;5091347;28;20010;-61
2023/05/08 15:41:33;;;;;;;;;;;;;;;;;;5091054;28;19924;-61
2023/05/08 15:43:59;;;;;;;;;;;;;;;;;;5090709;28;19920;-61
2023/05/08 15:46:25;;;;;;;;;;;;;;;;;;5090929;28;19970;-61
2023/05/08 15:48:51;;;;;;;;;;;;;;;;;;5090942;28;19924;-61
2023/05/08 15:51:17;;;;;;;;;;;;;;;;;;5090329;28;19924;-61
2023/05/08 15:53:43;;;;;;;;;;;;;;;;;;5072661;28;19920;-61
2023/05/08 15:56:09;;;;;;;;;;;;;;;;;;5091115;28;19943;-61
2023/05/08 15:58:37;;;;;;;;;;;;;;;;;;5090034;28;19923;-61
2023/05/08 16:01:03;;;;;;;;;;;;;;;;;;5090861;28;20282;-61
2023/05/08 16:03:29;;;;;;;;;;;;;;;;;;5091166;28;19920;-61
2023/05/08 16:05:55;;;;;;;;;;;;;;;;;;5090489;28;20358;-61
2023/05/08 16:08:21;;;;;;;;;;;;;;;;;;5091119;28;19924;-61
2023/05/08 16:10:47;;;;;;;;;;;;;;;;;;5090964;28;19973;-61
2023/05/08 16:13:13;;;;;;;;;;;;;;;;;;5090412;28;19963;-61
2023/05/08 16:15:39;;;;;;;;;;;;;;;;;;5094124;28;19940;-61
2023/05/08 16:18:05;;;;;;;;;;;;;;;;;;5094932;28;20000;-61
2023/05/08 16:20:31;;;;;;;;;;;;;;;;;;5094408;28;19928;-61
2023/05/08 16:22:57;;;;;;;;;;;;;;;;;;5094537;28;19963;-61
2023/05/08 16:25:23;;;;;;;;;;;;;;;;;;5090235;28;20007;-61
2023/05/08 16:27:49;;;;;;;;;;;;;;;;;;5083451;28;19924;-61
2023/05/08 16:30:15;;;;;;;;;;;;;;;;;;5094149;28;20028;-61
2023/05/08 16:32:41;;;;;;;;;;;;;;;;;;5094000;28;19931;-61
2023/05/08 16:35:07;;;;;;;;;;;;;;;;;;5093812;28;19924;-61
2023/05/08 16:37:33;;;;;;;;;;;;;;;;;;5094323;28;19920;-61